Time;durP1;ratioP1;P1;durP2;ratioP2;P2;SDS_P1;SDS_P2;PMS_P1;PMS_P2;Temp;Humidity;BMP_temperature;BMP_pressure;BME280_temperature;BME280_humidity;BME280_pressure;Samples;Min_cycle;Max_cycle;Signal;HPM_P1;HPM_P2
2022/02/02 00:00:08;;;;;;;12.52;6.35;;;6.20;96.70;;;;;;4984225;28;20050;-82
2022/02/02 00:02:47;;;;;;;9.85;6.43;;;6.00;96.70;;;;;;4979881;28;20532;-82
2022/02/02 00:08:03;;;;;;;12.23;6.47;;;6.10;96.70;;;;;;4964899;28;20377;-82
2022/02/02 00:13:11;;;;;;;12.10;6.70;;;6.20;96.70;;;;;;4960231;28;20053;-82
2022/02/02 00:15:56;;;;;;;12.73;6.25;;;6.10;96.70;;;;;;4962222;28;20082;-82
2022/02/02 00:21:13;;;;;;;11.07;6.53;;;6.00;96.70;;;;;;4983810;28;20035;-82
2022/02/02 00:23:47;;;;;;;11.40;6.30;;;5.90;96.70;;;;;;4962558;28;20125;-82
2022/02/02 00:26:25;;;;;;;11.25;6.55;;;5.80;96.70;;;;;;4969445;28;20924;-82
2022/02/02 00:28:59;;;;;;;11.02;6.18;;;5.90;96.70;;;;;;4982995;28;20047;-82
2022/02/02 00:31:35;;;;;;;8.00;5.63;;;5.90;96.70;;;;;;4965856;28;20039;-81
2022/02/02 00:34:07;;;;;;;10.93;6.32;;;6.00;96.70;;;;;;4967253;28;20515;-82
2022/02/02 00:36:48;;;;;;;10.50;6.25;;;6.00;96.70;;;;;;4972764;28;20054;-82
2022/02/02 00:39:17;;;;;;;14.70;6.07;;;5.90;96.70;;;;;;4995651;28;20614;-82
2022/02/02 00:41:46;;;;;;;12.45;6.43;;;6.00;96.70;;;;;;4991031;28;20109;-82
2022/02/02 00:44:17;;;;;;;12.15;6.82;;;6.00;96.70;;;;;;5001119;28;20119;-82
2022/02/02 00:46:46;;;;;;;14.43;5.82;;;6.00;96.70;;;;;;4986543;28;20045;-83
2022/02/02 00:49:14;;;;;;;9.90;5.72;;;6.00;96.70;;;;;;4987563;28;20073;-82
2022/02/02 00:51:47;;;;;;;9.50;5.82;;;5.90;96.70;;;;;;4986226;28;20042;-82
2022/02/02 00:54:20;;;;;;;9.50;5.57;;;5.90;96.70;;;;;;5003291;28;20355;-82
2022/02/02 00:56:49;;;;;;;9.90;6.10;;;6.00;96.70;;;;;;4984553;28;20145;-82
2022/02/02 00:59:18;;;;;;;13.40;5.90;;;6.00;96.70;;;;;;4995407;28;20097;-82
2022/02/02 01:01:47;;;;;;;10.85;5.88;;;5.90;96.70;;;;;;4981703;28;20042;-83
2022/02/02 01:04:15;;;;;;;9.85;5.45;;;5.80;96.70;;;;;;4997892;28;20520;-82
2022/02/02 01:06:54;;;;;;;10.55;5.80;;;5.70;96.70;;;;;;4984821;28;20057;-82
2022/02/02 01:09:34;;;;;;;8.88;5.03;;;5.70;96.70;;;;;;4999327;28;20054;-82
2022/02/02 01:20:04;;;;;;;11.25;6.10;;;5.70;96.70;;;;;;4985642;28;20694;-82
2022/02/02 01:28:09;;;;;;;9.18;5.18;;;5.50;96.70;;;;;;4987709;28;20046;-82
2022/02/02 01:30:38;;;;;;;10.32;5.10;;;5.50;96.70;;;;;;5004295;28;20073;-82
2022/02/02 01:33:07;;;;;;;10.98;5.60;;;5.50;96.70;;;;;;4991923;28;20042;-82
2022/02/02 01:35:35;;;;;;;10.80;5.30;;;5.50;96.70;;;;;;4987391;28;20053;-82
2022/02/02 01:38:04;;;;;;;12.02;5.75;;;5.60;96.70;;;;;;4992813;28;20050;-82
2022/02/02 01:40:39;;;;;;;9.38;5.00;;;5.60;96.70;;;;;;5012645;28;20069;-82
2022/02/02 01:43:30;;;;;;;11.27;5.28;;;5.60;96.70;;;;;;4992780;28;20034;-82
2022/02/02 01:46:05;;;;;;;9.23;4.95;;;5.50;96.70;;;;;;5007770;28;20503;-81
2022/02/02 01:48:57;;;;;;;4.65;3.00;;;5.20;96.70;;;;;;4992235;28;20050;-82
2022/02/02 01:56:24;;;;;;;9.88;5.10;;;5.50;96.70;;;;;;5005590;28;20200;-82
2022/02/02 01:59:02;;;;;;;8.50;4.85;;;5.30;96.70;;;;;;4992834;28;20321;-82
2022/02/02 02:01:30;;;;;;;10.10;4.97;;;5.20;96.70;;;;;;5005707;28;20141;-83
2022/02/02 02:03:59;;;;;;;9.90;4.90;;;5.20;96.70;;;;;;4995298;28;20072;-82
2022/02/02 02:06:27;;;;;;;7.90;4.75;;;5.10;96.70;;;;;;5005787;28;20319;-82
2022/02/02 02:08:55;;;;;;;8.73;4.80;;;5.10;96.70;;;;;;4987994;28;20566;-82
2022/02/02 02:11:25;;;;;;;6.93;4.60;;;5.10;96.70;;;;;;4988483;28;20054;-82
2022/02/02 02:14:27;;;;;;;10.40;4.90;;;5.10;96.70;;;;;;4985882;28;20042;-82
2022/02/02 02:16:41;;;;;;;10.10;5.07;;;5.10;96.70;;;;;;4987744;28;20046;-82
2022/02/02 02:19:09;;;;;;;9.23;5.60;;;5.00;96.70;;;;;;4989568;28;20058;-82
2022/02/02 02:21:38;;;;;;;9.07;4.85;;;4.70;96.70;;;;;;4985419;28;20137;-81
2022/02/02 02:24:08;;;;;;;8.30;5.30;;;4.80;96.70;;;;;;5004428;28;20475;-82
2022/02/02 02:26:40;;;;;;;8.23;5.10;;;4.80;96.70;;;;;;4986885;28;20074;-82
2022/02/02 02:39:45;;;;;;;8.10;5.18;;;5.10;96.70;;;;;;5002654;28;20045;-82
2022/02/02 02:56:08;;;;;;;8.43;4.53;;;4.50;96.70;;;;;;4997277;28;20061;-83
2022/02/02 02:58:46;;;;;;;6.38;4.20;;;4.60;96.70;;;;;;4978558;28;20045;-83
2022/02/02 03:01:32;;;;;;;9.02;4.35;;;4.60;96.70;;;;;;4993863;28;20052;-83
2022/02/02 03:51:27;;;;;;;5.88;3.45;;;4.50;96.70;;;;;;4987793;28;20108;-82
2022/02/02 03:57:08;;;;;;;6.18;3.47;;;4.60;96.70;;;;;;5005255;28;20496;-82
2022/02/02 03:59:46;;;;;;;4.93;3.30;;;4.70;96.70;;;;;;5002759;28;20049;-82
2022/02/02 04:07:21;;;;;;;6.57;3.58;;;4.30;96.70;;;;;;5004871;28;20053;-81
2022/02/02 04:09:50;;;;;;;6.28;3.60;;;4.20;96.70;;;;;;5002803;28;20774;-81
2022/02/02 04:12:36;;;;;;;10.77;3.58;;;4.20;96.70;;;;;;4987723;28;20045;-82
2022/02/02 04:51:49;;;;;;;6.78;2.75;;;4.40;96.70;;;;;;4966563;28;20425;-82
2022/02/02 04:59:59;;;;;;;4.57;3.10;;;4.20;96.70;;;;;;4966559;28;20608;-82
2022/02/02 05:08:00;;;;;;;4.78;3.10;;;4.30;96.70;;;;;;4964216;28;20677;-82
2022/02/02 05:15:53;;;;;;;7.70;3.35;;;4.40;96.70;;;;;;5009020;28;20050;-81
2022/02/02 05:48:35;;;;;;;6.82;2.63;;;4.20;96.70;;;;;;4989383;28;20038;-82
2022/02/02 05:53:34;;;;;;;4.80;2.75;;;4.20;96.70;;;;;;5012210;28;20053;-82
2022/02/02 05:56:06;;;;;;;3.88;2.50;;;4.00;96.70;;;;;;4988491;28;20042;-82
2022/02/02 05:58:38;;;;;;;6.15;3.05;;;3.90;96.70;;;;;;5005420;28;20509;-81
2022/02/02 06:01:08;;;;;;;4.45;2.80;;;4.10;96.70;;;;;;4993079;28;20097;-82
2022/02/02 06:03:51;;;;;;;4.13;2.65;;;4.20;96.70;;;;;;4997626;28;20075;-82
2022/02/02 06:06:22;;;;;;;5.22;2.92;;;4.20;96.70;;;;;;5003576;28;20072;-82
2022/02/02 06:08:52;;;;;;;5.47;3.05;;;4.20;96.70;;;;;;5007231;28;20853;-82
2022/02/02 06:11:23;;;;;;;5.57;2.72;;;4.20;96.70;;;;;;5003255;28;20049;-82
2022/02/02 06:13:56;;;;;;;7.78;2.90;;;4.20;96.70;;;;;;4991355;28;20111;-82
2022/02/02 06:16:26;;;;;;;8.40;2.55;;;4.10;96.70;;;;;;5004514;28;20218;-82
2022/02/02 06:18:59;;;;;;;7.32;3.65;;;4.10;96.70;;;;;;5005043;28;20073;-82
2022/02/02 06:21:31;;;;;;;6.43;2.63;;;4.10;96.70;;;;;;4989147;28;20112;-82
2022/02/02 06:24:07;;;;;;;4.85;2.65;;;4.10;96.70;;;;;;4992920;28;20077;-82
2022/02/02 06:26:38;;;;;;;8.98;2.80;;;4.20;96.70;;;;;;4988047;28;20049;-82
2022/02/02 06:29:08;;;;;;;4.07;2.60;;;4.10;96.70;;;;;;5008020;28;20077;-83
2022/02/02 06:31:37;;;;;;;6.85;2.65;;;4.20;96.70;;;;;;5005105;28;20508;-83
2022/02/02 06:34:08;;;;;;;7.70;3.85;;;3.90;96.70;;;;;;4996929;28;20076;-83
2022/02/02 06:36:38;;;;;;;8.07;4.85;;;3.50;96.70;;;;;;5002135;28;20197;-83
2022/02/02 06:39:08;;;;;;;9.23;4.10;;;3.60;96.70;;;;;;4990671;28;20120;-82
2022/02/02 06:41:38;;;;;;;7.15;4.03;;;3.60;96.70;;;;;;4993815;28;20038;-83
2022/02/02 06:44:06;;;;;;;8.93;4.60;;;3.80;96.70;;;;;;5016466;28;20069;-83
2022/02/02 06:46:38;;;;;;;11.68;6.15;;;3.70;96.70;;;;;;4991998;28;20500;-82
2022/02/02 06:49:08;;;;;;;10.57;5.68;;;3.90;96.70;;;;;;4984595;28;20513;-82
2022/02/02 06:51:55;;;;;;;9.98;6.03;;;3.80;96.70;;;;;;4988704;28;20673;-82
2022/02/02 06:54:42;;;;;;;16.50;7.57;;;4.00;96.70;;;;;;4988490;28;20091;-82
2022/02/02 06:57:20;;;;;;;14.93;6.72;;;3.90;96.70;;;;;;5004391;28;20234;-82
2022/02/02 07:03:05;;;;;;;9.98;4.53;;;3.90;96.70;;;;;;4970634;28;20050;-81
2022/02/02 07:11:02;;;;;;;10.52;3.63;;;4.20;96.70;;;;;;4988066;28;20054;-81
2022/02/02 07:24:07;;;;;;;6.35;3.22;;;4.10;96.70;;;;;;4985948;28;20444;-78
2022/02/02 07:27:11;;;;;;;7.78;3.25;;;4.10;96.70;;;;;;4986790;28;20407;-79
2022/02/02 07:32:46;;;;;;;7.05;3.22;;;4.30;96.70;;;;;;4984674;28;20100;-79
2022/02/02 07:37:57;;;;;;;6.40;3.17;;;4.60;96.70;;;;;;5007707;28;20049;-78
2022/02/02 07:40:26;;;;;;;6.85;3.90;;;4.50;96.70;;;;;;4988136;28;20129;-82
2022/02/02 07:43:01;;;;;;;5.20;3.38;;;4.60;96.70;;;;;;4997807;28;20049;-80
2022/02/02 07:45:32;;;;;;;7.72;3.78;;;4.60;96.70;;;;;;5000849;28;20930;-81
2022/02/02 07:48:03;;;;;;;9.05;4.05;;;4.70;96.70;;;;;;5005130;28;20048;-81
2022/02/02 07:50:35;;;;;;;7.30;3.90;;;4.80;96.70;;;;;;4989433;28;20111;-81
2022/02/02 07:53:08;;;;;;;9.55;4.00;;;4.80;96.70;;;;;;5011129;28;20042;-80
2022/02/02 07:55:40;;;;;;;9.30;3.63;;;4.90;96.70;;;;;;4989789;28;20048;-81
2022/02/02 07:58:12;;;;;;;4.55;2.90;;;5.00;96.70;;;;;;4985929;28;20100;-81
2022/02/02 08:00:42;;;;;;;5.72;2.70;;;5.00;96.70;;;;;;4987673;28;20042;-81
2022/02/02 08:03:13;;;;;;;6.82;3.03;;;5.10;96.70;;;;;;5004372;28;20041;-80
2022/02/02 08:05:47;;;;;;;7.28;3.10;;;5.30;96.70;;;;;;4985595;28;20135;-81
2022/02/02 08:10:46;;;;;;;9.45;3.50;;;5.40;96.70;;;;;;5002995;28;20129;-80
2022/02/02 08:13:19;;;;;;;8.93;3.45;;;5.40;96.70;;;;;;4988317;28;20049;-81
2022/02/02 08:16:05;;;;;;;6.53;3.40;;;5.50;96.70;;;;;;4989155;28;20042;-81
2022/02/02 08:18:33;;;;;;;6.18;3.00;;;5.60;96.70;;;;;;4967615;28;20582;-81
2022/02/02 08:21:01;;;;;;;8.20;3.67;;;5.60;96.70;;;;;;5003936;28;20048;-81
2022/02/02 08:23:30;;;;;;;6.63;3.10;;;5.70;96.70;;;;;;4990864;28;20050;-81
2022/02/02 08:25:59;;;;;;;5.97;3.55;;;5.80;96.70;;;;;;5003559;28;20053;-80
2022/02/02 08:28:28;;;;;;;7.32;3.30;;;5.80;96.70;;;;;;5000788;28;20582;-80
2022/02/02 08:30:58;;;;;;;6.57;2.85;;;5.90;96.70;;;;;;4983022;28;20072;-82
2022/02/02 08:33:32;;;;;;;5.35;3.20;;;5.90;96.70;;;;;;5002826;28;20042;-82
2022/02/02 08:36:03;;;;;;;7.00;3.08;;;6.00;96.70;;;;;;5003914;28;20104;-79
2022/02/02 08:38:42;;;;;;;6.10;3.38;;;6.10;96.70;;;;;;4990311;28;20052;-80
2022/02/02 08:41:34;;;;;;;5.55;3.38;;;6.10;96.70;;;;;;4989020;28;20403;-79
2022/02/02 08:44:11;;;;;;;5.57;3.50;;;6.30;96.70;;;;;;4985849;28;20562;-79
2022/02/02 08:46:47;;;;;;;7.00;3.00;;;6.40;96.70;;;;;;5005570;28;20519;-80
2022/02/02 08:49:16;;;;;;;6.10;2.83;;;6.50;96.70;;;;;;5011549;28;20042;-81
2022/02/02 08:51:47;;;;;;;5.53;3.05;;;6.60;96.70;;;;;;4990622;28;20081;-80
2022/02/02 08:59:50;;;;;;;3.92;2.47;;;6.90;96.70;;;;;;5004719;28;20042;-80
2022/02/02 09:02:26;;;;;;;4.50;2.60;;;7.00;96.70;;;;;;5006837;28;20093;-80
2022/02/02 09:07:49;;;;;;;4.60;2.50;;;7.10;96.70;;;;;;5009008;28;20104;-82
2022/02/02 09:24:33;;;;;;;6.93;2.60;;;7.80;96.70;;;;;;4990787;28;20073;-85
2022/02/02 09:35:01;;;;;;;5.20;2.45;;;8.30;96.70;;;;;;5010145;28;20041;-83
2022/02/02 09:37:29;;;;;;;7.03;2.53;;;8.40;96.70;;;;;;5001256;28;20074;-84
2022/02/02 09:40:39;;;;;;;3.95;2.42;;;8.50;96.70;;;;;;5009549;28;20052;-82
2022/02/02 09:42:59;;;;;;;6.68;2.67;;;8.60;96.70;;;;;;4988172;28;20423;-82
2022/02/02 09:45:33;;;;;;;6.72;2.33;;;8.80;96.70;;;;;;4996701;28;20121;-81
2022/02/02 09:48:11;;;;;;;5.25;2.70;;;8.80;96.70;;;;;;4993918;28;20491;-82
2022/02/02 09:50:52;;;;;;;5.22;2.67;;;8.90;96.70;;;;;;4997253;28;20128;-81
2022/02/02 09:53:44;;;;;;;7.03;2.90;;;9.00;96.70;;;;;;4989362;28;20518;-81
2022/02/02 09:59:21;;;;;;;6.82;3.13;;;9.10;96.70;;;;;;5013012;28;20504;-81
2022/02/02 10:15:46;;;;;;;5.60;3.45;;;9.70;96.70;;;;;;5004995;28;20049;-84
2022/02/02 10:18:20;;;;;;;7.40;3.35;;;9.70;96.70;;;;;;4989709;28;20042;-82
2022/02/02 10:20:51;;;;;;;8.00;3.38;;;9.90;96.70;;;;;;4989309;28;20656;-84
2022/02/02 10:23:26;;;;;;;7.07;3.25;;;10.00;96.70;;;;;;4992650;28;20429;-85
2022/02/02 10:25:58;;;;;;;7.90;3.30;;;10.10;96.70;;;;;;4990235;28;20038;-84
2022/02/02 10:28:30;;;;;;;8.85;3.90;;;10.20;96.70;;;;;;5007908;28;20045;-84
2022/02/02 10:31:04;;;;;;;6.97;3.05;;;10.30;96.70;;;;;;4992010;28;20598;-83
2022/02/02 10:33:33;;;;;;;8.52;3.42;;;10.50;96.70;;;;;;4994766;28;20289;-84
2022/02/02 10:36:20;;;;;;;4.53;2.88;;;10.50;96.70;;;;;;4985993;28;20518;-84
2022/02/02 10:39:07;;;;;;;6.63;3.63;;;10.50;96.70;;;;;;4969882;28;20046;-82
2022/02/02 10:41:46;;;;;;;5.60;3.70;;;10.70;96.70;;;;;;5001157;28;20054;-81
2022/02/02 10:44:30;;;;;;;8.80;3.83;;;10.70;96.70;;;;;;5004563;28;20054;-82
2022/02/02 10:47:16;;;;;;;9.35;3.65;;;10.90;96.70;;;;;;4987812;28;20041;-82
2022/02/02 10:50:04;;;;;;;10.23;3.50;;;11.00;96.70;;;;;;4987126;28;20129;-83
2022/02/02 10:55:56;;;;;;;9.85;3.92;;;11.20;96.70;;;;;;4998885;28;20073;-82
2022/02/02 11:06:43;;;;;;;12.00;5.32;;;11.80;96.70;;;;;;4998584;28;20050;-81
2022/02/02 11:09:13;;;;;;;7.95;4.82;;;11.80;96.70;;;;;;4987106;28;20046;-81
2022/02/02 11:11:44;;;;;;;12.40;4.15;;;11.80;96.70;;;;;;4987822;28;20388;-80
2022/02/02 11:14:23;;;;;;;8.35;3.75;;;11.80;96.70;;;;;;4985219;28;20038;-80
2022/02/02 11:16:57;;;;;;;15.00;4.72;;;11.80;96.70;;;;;;4986096;28;20113;-80
2022/02/02 11:19:32;;;;;;;15.10;4.60;;;12.00;96.70;;;;;;4984629;28;20078;-80
2022/02/02 11:22:33;;;;;;;8.98;4.15;;;12.10;96.70;;;;;;5002116;28;20073;-80
2022/02/02 11:25:33;;;;;;;10.27;4.57;;;12.20;96.70;;;;;;5005339;28;20046;-81
2022/02/02 11:28:29;;;;;;;9.68;4.70;;;12.30;96.70;;;;;;4982761;28;20049;-80
2022/02/02 11:31:07;;;;;;;9.75;4.55;;;12.40;96.70;;;;;;5002482;28;20048;-80
2022/02/02 11:33:47;;;;;;;9.90;4.43;;;12.50;96.70;;;;;;4983290;28;20054;-80
2022/02/02 11:36:28;;;;;;;13.63;5.32;;;12.70;96.70;;;;;;4987776;28;20088;-80
2022/02/02 11:38:59;;;;;;;13.43;4.53;;;12.80;96.70;;;;;;4981842;28;20138;-80
2022/02/02 11:41:42;;;;;;;9.35;4.40;;;12.90;96.70;;;;;;4986301;28;20042;-80
2022/02/02 11:44:27;;;;;;;14.27;4.20;;;13.00;96.70;;;;;;4984677;28;20048;-81
2022/02/02 11:47:07;;;;;;;9.80;4.80;;;13.10;96.70;;;;;;4982827;28;20062;-80
2022/02/02 11:50:10;;;;;;;13.07;4.38;;;13.20;96.70;;;;;;5001412;28;20108;-80
2022/02/02 11:52:43;;;;;;;7.60;4.38;;;13.40;96.70;;;;;;4999148;28;20058;-80
2022/02/02 11:55:42;;;;;;;8.02;4.32;;;13.50;96.70;;;;;;5008149;28;20046;-80
2022/02/02 11:58:25;;;;;;;7.53;4.18;;;13.60;96.70;;;;;;4909590;29;20324;-80
2022/02/02 12:04:22;;;;;;;7.80;4.15;;;13.80;96.70;;;;;;4885049;29;20076;-80
2022/02/02 12:09:37;;;;;;;9.20;4.78;;;13.90;96.70;;;;;;4885256;29;20095;-81
2022/02/02 12:48:59;;;;;;;11.18;3.53;;;15.20;96.70;;;;;;4957187;28;20572;-81
2022/02/02 12:57:09;;;;;;;7.15;1.92;;;15.30;96.70;;;;;;4968696;28;20042;-82
2022/02/02 13:02:14;;;;;;;8.32;2.15;;;15.10;96.70;;;;;;4964233;28;20065;-82
2022/02/02 13:04:45;;;;;;;6.07;1.55;;;15.20;96.70;;;;;;4963614;28;20043;-82
2022/02/02 13:07:17;;;;;;;8.35;2.10;;;15.30;96.70;;;;;;4979318;28;20502;-81
2022/02/02 13:09:48;;;;;;;9.60;2.75;;;15.50;96.70;;;;;;4976435;28;20054;-81
2022/02/02 13:12:28;;;;;;;7.75;2.15;;;15.40;96.70;;;;;;4961201;28;20113;-81
2022/02/02 13:15:10;;;;;;;7.72;1.33;;;15.50;96.70;;;;;;4963111;28;20429;-81
2022/02/02 13:17:55;;;;;;;7.82;1.70;;;15.60;96.70;;;;;;4983012;28;20524;-84
2022/02/02 13:20:42;;;;;;;6.20;1.27;;;15.70;96.70;;;;;;4987183;28;20054;-85
2022/02/02 13:23:31;;;;;;;;;;;15.70;96.70;;;;;;4988763;28;20289;-84
2022/02/02 13:26:05;;;;;;;8.13;1.70;;;15.70;96.70;;;;;;5007216;28;19976;-85
2022/02/02 13:28:47;;;;;;;7.35;1.25;;;15.70;96.70;;;;;;4973534;28;20207;-85
2022/02/02 13:34:18;;;;;;;7.18;1.40;;;15.70;96.70;;;;;;4985630;28;20049;-83
2022/02/02 13:36:56;;;;;;;11.02;1.60;;;15.70;96.70;;;;;;4979655;28;20100;-81
2022/02/02 14:04:45;;;;;;;8.73;1.58;;;15.70;96.70;;;;;;5001546;28;20054;-81
2022/02/02 14:07:18;;;;;;;10.35;1.80;;;15.60;96.70;;;;;;4984050;28;20121;-80
2022/02/02 14:31:45;;;;;;;16.23;4.55;;;15.20;96.70;;;;;;4984716;28;20156;-80
2022/02/02 14:34:34;;;;;;;13.63;4.07;;;15.20;96.70;;;;;;4986000;28;20267;-80
2022/02/02 14:37:06;;;;;;;9.95;1.83;;;15.10;96.70;;;;;;4980286;28;20043;-82
2022/02/02 14:39:48;;;;;;;7.95;2.10;;;15.10;96.70;;;;;;4988208;28;20129;-82
2022/02/02 14:42:21;;;;;;;12.60;2.85;;;15.00;96.70;;;;;;4989708;28;20039;-81
2022/02/02 14:45:03;;;;;;;9.88;1.83;;;15.00;96.70;;;;;;4987272;28;20073;-82
2022/02/02 14:47:36;;;;;;;11.30;1.88;;;15.00;96.70;;;;;;4975869;28;20061;-82
2022/02/02 14:50:20;;;;;;;10.13;2.85;;;15.00;96.70;;;;;;4985911;28;20469;-81
2022/02/02 15:07:34;;;;;;;;;;;14.90;96.70;;;;;;4986761;28;20065;-80
2022/02/02 15:27:13;;;;;;;10.95;3.17;;;14.60;96.70;;;;;;4984818;28;20543;-80
2022/02/02 15:29:32;;;;;;;17.63;4.43;;;14.60;96.70;;;;;;4988105;28;20096;-81
2022/02/02 15:32:01;;;;;;;18.85;5.00;;;14.60;96.70;;;;;;4991207;28;20152;-80
2022/02/02 15:34:42;;;;;;;16.65;4.72;;;14.50;96.70;;;;;;4967516;28;20054;-80
2022/02/02 15:37:34;;;;;;;15.45;4.53;;;14.50;96.70;;;;;;5000441;28;20056;-80
2022/02/02 15:40:08;;;;;;;19.23;4.88;;;14.90;96.70;;;;;;4988078;28;20046;-80
2022/02/02 15:42:56;;;;;;;15.32;4.60;;;15.80;96.70;;;;;;4987192;28;20112;-80
2022/02/02 15:58:58;;;;;;;13.57;3.55;;;16.50;96.70;;;;;;5003404;28;20038;-81
2022/02/02 16:04:34;;;;;;;12.32;4.90;;;16.20;96.70;;;;;;4919821;29;20043;-81
2022/02/02 16:07:07;;;;;;;18.30;5.28;;;15.30;96.70;;;;;;4920146;29;20051;-80
2022/02/02 16:09:47;;;;;;;20.38;6.38;;;14.70;96.70;;;;;;4921897;29;20059;-81
2022/02/02 16:12:27;;;;;;;18.30;7.15;;;14.30;96.70;;;;;;4923070;29;20164;-82
2022/02/02 16:15:13;;;;;;;18.48;3.97;;;14.10;96.70;;;;;;4925004;29;20116;-80
2022/02/02 16:18:33;;;;;;;16.17;4.10;;;13.90;96.70;;;;;;4921618;29;20075;-80
2022/02/02 16:37:16;;;;;;;16.08;4.00;;;13.00;96.70;;;;;;4866025;29;19990;-81
2022/02/02 16:39:52;;;;;;;14.23;4.57;;;12.90;96.70;;;;;;4902678;29;20636;-82
2022/02/02 16:45:08;;;;;;;;;;;12.70;96.70;;;;;;4901825;29;20040;-83
2022/02/02 16:47:36;;;;;;;22.63;7.25;;;12.70;96.70;;;;;;4889449;29;19931;-85
2022/02/02 16:50:14;;;;;;;13.13;4.63;;;12.60;96.70;;;;;;4904737;29;20056;-84
2022/02/02 16:52:45;;;;;;;16.35;3.63;;;12.60;96.70;;;;;;4904487;29;20064;-84
2022/02/02 16:55:33;;;;;;;19.45;3.83;;;12.50;96.70;;;;;;4911969;29;20075;-86
2022/02/02 17:34:50;;;;;;;51.80;29.13;;;11.80;96.70;;;;;;4981557;28;20051;-83
2022/02/02 17:37:43;;;;;;;49.03;28.90;;;11.80;96.70;;;;;;4988122;28;20405;-83
2022/02/02 17:40:19;;;;;;;38.03;21.45;;;11.70;96.70;;;;;;4984175;28;20050;-83
2022/02/02 17:45:41;;;;;;;22.08;9.00;;;11.70;96.70;;;;;;4986406;28;20088;-83
2022/02/02 17:57:16;;;;;;;20.00;6.68;;;11.70;96.70;;;;;;4984725;28;20049;-83
2022/02/02 18:13:35;;;;;;;17.77;6.70;;;11.60;96.70;;;;;;4986195;28;20042;-84
2022/02/02 18:21:04;;;;;;;21.48;8.82;;;11.60;96.70;;;;;;5005429;28;20050;-86
2022/02/02 18:23:44;;;;;;;22.38;9.90;;;11.60;96.70;;;;;;4972137;28;20050;-85
2022/02/02 18:26:26;;;;;;;24.08;12.05;;;11.60;96.70;;;;;;4987009;28;20043;-85
2022/02/02 18:29:11;;;;;;;28.33;14.50;;;11.50;96.70;;;;;;5000413;28;20049;-86
2022/02/02 18:34:24;;;;;;;25.50;11.20;;;11.40;96.70;;;;;;5000849;28;20054;-85
2022/02/02 18:48:17;;;;;;;26.08;13.85;;;11.40;96.70;;;;;;4928254;29;20351;-82
2022/02/02 19:02:09;;;;;;;26.42;14.45;;;11.40;96.70;;;;;;4951543;28;20141;-81
2022/02/02 19:40:35;;;;;;;35.53;19.13;;;10.80;96.70;;;;;;4985051;28;19926;-81
2022/02/02 19:57:23;;;;;;;30.75;16.42;;;10.70;96.70;;;;;;4899089;28;20143;-84
2022/02/02 20:03:14;;;;;;;29.55;17.45;;;10.70;96.70;;;;;;4989058;28;20117;-84
2022/02/02 20:08:47;;;;;;;30.63;19.48;;;10.70;96.70;;;;;;4941422;28;20087;-84
2022/02/02 20:11:19;;;;;;;31.80;19.50;;;10.70;96.70;;;;;;4941175;28;20525;-81
2022/02/02 20:13:49;;;;;;;35.38;19.92;;;10.60;96.70;;;;;;4940836;28;20078;-80
2022/02/02 20:16:18;;;;;;;33.30;20.42;;;10.60;96.70;;;;;;4946681;28;20049;-78
2022/02/02 20:18:49;;;;;;;35.15;19.80;;;10.50;96.70;;;;;;4941297;28;20063;-83
2022/02/02 20:21:22;;;;;;;31.08;18.92;;;10.50;96.70;;;;;;4947464;28;20671;-80
2022/02/02 20:23:51;;;;;;;31.33;17.88;;;10.50;96.70;;;;;;4944692;28;20047;-82
2022/02/02 20:26:23;;;;;;;32.70;18.17;;;10.50;96.70;;;;;;4945173;28;20050;-83
2022/02/02 20:28:55;;;;;;;28.55;15.55;;;10.50;96.70;;;;;;4949401;28;20538;-81
2022/02/02 20:31:26;;;;;;;27.35;15.88;;;10.50;96.70;;;;;;4943165;28;20051;-80
2022/02/02 20:33:55;;;;;;;26.05;14.10;;;10.50;96.70;;;;;;4928423;29;20051;-82
2022/02/02 20:36:24;;;;;;;27.98;16.10;;;10.40;96.70;;;;;;4943168;28;20777;-81
2022/02/02 20:38:53;;;;;;;30.67;16.10;;;10.30;96.70;;;;;;4944937;28;20069;-82
2022/02/02 20:41:21;;;;;;;28.23;17.55;;;10.20;96.70;;;;;;4944630;28;20630;-82
2022/02/02 20:44:01;;;;;;;36.10;18.92;;;10.10;96.70;;;;;;4963097;28;20052;-80
2022/02/02 21:01:11;;;;;;;30.75;18.80;;;9.90;96.70;;;;;;4982327;28;20125;-81
2022/02/02 21:11:16;;;;;;;27.38;18.73;;;9.70;96.70;;;;;;5001154;28;20113;-81
2022/02/02 21:13:52;;;;;;;27.35;17.63;;;9.60;96.70;;;;;;4979970;28;20049;-80
2022/02/02 21:16:28;;;;;;;28.10;17.10;;;9.50;96.70;;;;;;4982177;28;20052;-81
2022/02/02 21:19:00;;;;;;;26.08;14.98;;;9.50;96.70;;;;;;4983035;28;20137;-81
2022/02/02 21:21:48;;;;;;;24.17;13.63;;;9.60;96.70;;;;;;4984297;28;20046;-82
2022/02/02 21:24:44;;;;;;;30.50;15.45;;;9.60;96.70;;;;;;4981758;28;20046;-84
2022/02/02 21:27:30;;;;;;;27.92;15.35;;;9.60;96.70;;;;;;4980650;28;20054;-82
2022/02/02 21:29:53;;;;;;;23.88;15.07;;;9.60;96.70;;;;;;4981430;28;20054;-82
2022/02/02 21:32:25;;;;;;;21.08;13.50;;;9.50;96.70;;;;;;4995852;28;20126;-82
2022/02/02 21:34:54;;;;;;;26.48;15.80;;;9.50;96.70;;;;;;4984525;28;20053;-82
2022/02/02 21:37:31;;;;;;;24.58;15.13;;;9.50;96.70;;;;;;4994768;28;20781;-83
2022/02/02 21:40:16;;;;;;;27.15;14.70;;;9.50;96.70;;;;;;4987075;28;20042;-82
2022/02/02 21:42:46;;;;;;;18.75;12.73;;;9.40;96.70;;;;;;5003128;28;20526;-83
2022/02/02 21:45:16;;;;;;;24.45;12.98;;;9.40;96.70;;;;;;5009325;28;20398;-82
2022/02/02 21:47:46;;;;;;;19.75;11.25;;;9.40;96.70;;;;;;5002458;28;20416;-83
2022/02/02 21:50:18;;;;;;;22.23;11.30;;;9.40;96.70;;;;;;4986746;28;20136;-83
2022/02/02 21:52:49;;;;;;;17.15;9.73;;;9.30;96.70;;;;;;4981692;28;20242;-82
2022/02/02 21:55:18;;;;;;;20.20;10.35;;;9.20;96.70;;;;;;4983900;28;20050;-82
2022/02/02 21:57:48;;;;;;;20.13;11.07;;;9.20;96.70;;;;;;5000526;28;20412;-83
2022/02/02 22:00:17;;;;;;;20.00;10.98;;;9.30;96.70;;;;;;4984416;28;20052;-81
2022/02/02 22:02:49;;;;;;;22.45;12.30;;;9.30;96.70;;;;;;4967445;28;20066;-83
2022/02/02 22:05:19;;;;;;;24.45;13.68;;;9.30;96.70;;;;;;4987299;28;20045;-83
2022/02/02 22:07:48;;;;;;;22.08;12.35;;;9.30;96.70;;;;;;4984609;28;20045;-82
2022/02/02 22:10:18;;;;;;;25.90;13.85;;;9.20;96.70;;;;;;4984557;28;20046;-82
2022/02/02 22:12:46;;;;;;;24.45;14.35;;;9.20;96.70;;;;;;4997818;28;20050;-83
2022/02/02 22:15:22;;;;;;;27.92;16.65;;;9.00;96.70;;;;;;4982648;28;20546;-81
2022/02/02 22:17:52;;;;;;;20.17;14.30;;;9.10;96.70;;;;;;4988676;28;20042;-82
2022/02/02 22:20:21;;;;;;;25.52;14.63;;;8.90;96.70;;;;;;4982056;28;20266;-82
2022/02/02 22:22:50;;;;;;;23.27;13.20;;;9.00;96.70;;;;;;4983846;28;20054;-78
2022/02/02 22:25:21;;;;;;;29.02;14.10;;;9.00;96.70;;;;;;4986755;28;20054;-80
2022/02/02 22:27:49;;;;;;;18.27;11.15;;;9.00;96.70;;;;;;4983106;28;20054;-81
2022/02/02 22:30:17;;;;;;;18.25;11.63;;;8.90;96.70;;;;;;4985641;28;20066;-81
2022/02/02 22:32:46;;;;;;;13.52;9.85;;;8.90;96.70;;;;;;5001829;28;20605;-81
2022/02/02 22:35:16;;;;;;;18.70;10.93;;;8.80;96.70;;;;;;4985434;28;20070;-82
2022/02/02 22:37:45;;;;;;;17.35;10.05;;;8.90;96.70;;;;;;5003678;28;20045;-81
2022/02/02 22:40:22;;;;;;;16.77;10.00;;;9.00;96.70;;;;;;5002866;28;20053;-81
2022/02/02 22:42:51;;;;;;;15.48;8.90;;;9.00;96.70;;;;;;5000307;28;20057;-81
2022/02/02 22:45:20;;;;;;;15.27;9.02;;;9.00;96.70;;;;;;4991825;28;20511;-81
2022/02/02 22:47:49;;;;;;;14.77;9.20;;;9.00;96.70;;;;;;5003907;28;20380;-82
2022/02/02 22:50:21;;;;;;;15.27;9.20;;;9.00;96.70;;;;;;5004084;28;20085;-82
2022/02/02 22:52:51;;;;;;;16.33;9.57;;;9.00;96.70;;;;;;5002069;28;20050;-81
2022/02/02 22:55:20;;;;;;;14.48;9.10;;;8.90;96.70;;;;;;5002819;28;20038;-82
2022/02/02 22:57:48;;;;;;;16.80;9.98;;;8.90;96.70;;;;;;5000313;28;20049;-81
2022/02/02 23:00:18;;;;;;;15.15;10.18;;;8.90;96.70;;;;;;4984753;28;20423;-82
2022/02/02 23:02:53;;;;;;;18.00;10.50;;;8.90;96.70;;;;;;5006480;28;20099;-82
2022/02/02 23:05:33;;;;;;;16.08;10.38;;;8.80;96.70;;;;;;4996287;28;20041;-81
2022/02/02 23:08:03;;;;;;;17.60;10.35;;;8.80;96.70;;;;;;4986732;28;20045;-81
2022/02/02 23:10:31;;;;;;;19.55;10.18;;;8.80;96.70;;;;;;4986746;28;20499;-81
2022/02/02 23:13:00;;;;;;;18.30;7.72;;;8.80;96.70;;;;;;4984188;28;20042;-82
2022/02/02 23:15:48;;;;;;;16.90;6.88;;;8.80;96.70;;;;;;4984662;28;21156;-82
2022/02/02 23:18:23;;;;;;;11.30;6.60;;;8.70;96.70;;;;;;5014549;28;20741;-82
2022/02/02 23:20:58;;;;;;;13.88;6.30;;;8.50;96.70;;;;;;5004040;28;20049;-83
2022/02/02 23:23:28;;;;;;;14.45;6.78;;;8.60;96.70;;;;;;4988488;28;20229;-82
2022/02/02 23:26:00;;;;;;;14.27;6.65;;;8.60;96.70;;;;;;4995964;28;20045;-82
2022/02/02 23:28:32;;;;;;;15.88;7.43;;;8.60;96.70;;;;;;5010714;28;20104;-82
2022/02/02 23:31:03;;;;;;;13.35;7.35;;;8.70;96.70;;;;;;5003871;28;20053;-82
2022/02/02 23:33:32;;;;;;;15.98;8.05;;;8.60;96.70;;;;;;5001794;28;20056;-82
2022/02/02 23:36:02;;;;;;;14.95;7.97;;;8.50;96.70;;;;;;4986986;28;20053;-82
2022/02/02 23:38:31;;;;;;;12.52;8.45;;;8.40;96.70;;;;;;4994675;28;20064;-80
2022/02/02 23:42:17;;;;;;;16.98;8.30;;;8.40;96.70;;;;;;5003346;28;20042;-80